createdAt,value
2023-03-13T00:00:55.923Z,46.70
2023-03-13T00:03:24.143Z,46.72
2023-03-13T00:05:55.944Z,46.92
2023-03-13T00:08:25.438Z,47.15
2023-03-13T00:10:53.330Z,46.80
2023-03-13T00:13:21.129Z,46.30
2023-03-13T00:15:49.112Z,47.65
2023-03-13T00:18:16.912Z,47.10
2023-03-13T00:20:47.662Z,46.20
2023-03-13T00:23:15.492Z,47.10
2023-03-13T00:25:44.612Z,44.70
2023-03-13T00:28:12.448Z,45.80
2023-03-13T00:30:40.398Z,47.55
2023-03-13T00:33:08.248Z,44.70
2023-03-13T00:35:36.076Z,45.40
2023-03-13T00:38:03.967Z,45.90
2023-03-13T00:40:31.770Z,46.33
2023-03-13T00:43:00.907Z,46.05
2023-03-13T00:45:28.705Z,47.75
2023-03-13T00:47:56.519Z,43.13
2023-03-13T00:50:24.386Z,45.13
2023-03-13T00:52:52.171Z,41.13
2023-03-13T00:55:19.979Z,41.63
2023-03-13T00:57:47.911Z,43.47
2023-03-13T01:00:18.291Z,44.93
2023-03-13T01:02:46.194Z,43.83
2023-03-13T01:05:14.176Z,41.60
2023-03-13T01:07:41.986Z,41.10
2023-03-13T01:10:11.048Z,41.30
2023-03-13T01:12:38.853Z,40.43
2023-03-13T01:15:07.546Z,41.00
2023-03-13T01:17:36.708Z,40.23
2023-03-13T01:20:05.493Z,39.90
2023-03-13T01:22:33.318Z,42.57
2023-03-13T01:25:01.138Z,42.87
2023-03-13T01:27:30.119Z,39.10
2023-03-13T01:29:57.939Z,42.83
2023-03-13T01:32:25.833Z,38.87
2023-03-13T01:34:55.059Z,41.80
2023-03-13T01:37:22.880Z,39.90
2023-03-13T01:39:51.145Z,39.50
2023-03-13T01:42:18.988Z,39.43
2023-03-13T01:44:54.475Z,39.33
2023-03-13T01:47:22.744Z,39.80
2023-03-13T01:49:53.525Z,39.70
2023-03-13T01:52:25.653Z,41.50
2023-03-13T01:54:56.287Z,37.97
2023-03-13T01:57:27.933Z,42.37
2023-03-13T02:00:00.455Z,38.90
2023-03-13T02:02:29.485Z,41.10
2023-03-13T02:05:01.544Z,40.70
2023-03-13T02:07:36.137Z,42.03
2023-03-13T02:10:04.395Z,39.43
2023-03-13T02:12:34.155Z,42.53
2023-03-13T02:15:05.615Z,41.43
2023-03-13T02:17:36.724Z,41.30
2023-03-13T02:20:05.027Z,43.90
2023-03-13T02:22:42.112Z,40.77
2023-03-13T02:25:19.073Z,40.33
2023-03-13T02:27:49.226Z,41.70
2023-03-13T02:30:17.183Z,38.03
2023-03-13T02:32:46.415Z,40.30
2023-03-13T02:35:17.934Z,39.60
2023-03-13T02:37:50.683Z,41.53
2023-03-13T02:40:23.640Z,37.47
2023-03-13T02:42:54.536Z,40.70
2023-03-13T02:45:22.456Z,44.23
2023-03-13T02:47:50.453Z,39.97
2023-03-13T02:50:19.047Z,43.20
2023-03-13T02:52:50.542Z,38.07
2023-03-13T02:55:22.657Z,37.30
2023-03-13T02:57:52.120Z,36.73
2023-03-13T03:00:21.872Z,40.60
2023-03-13T03:02:49.694Z,37.00
2023-03-13T03:05:17.583Z,37.83
2023-03-13T03:07:45.500Z,36.47
2023-03-13T03:10:13.516Z,39.30
2023-03-13T03:12:41.317Z,37.50
2023-03-13T03:15:11.635Z,39.80
2023-03-13T03:17:40.747Z,37.43
2023-03-13T03:20:11.940Z,38.33
2023-03-13T03:22:40.674Z,49.87
2023-03-13T03:25:09.948Z,38.17
2023-03-13T03:27:37.829Z,37.93
2023-03-13T03:30:06.641Z,46.90
2023-03-13T03:32:35.841Z,36.67
2023-03-13T03:35:03.801Z,41.63
2023-03-13T03:37:31.623Z,36.47
2023-03-13T03:39:59.449Z,38.43
2023-03-13T03:42:27.226Z,36.73
2023-03-13T03:44:55.243Z,36.70
2023-03-13T03:47:23.138Z,37.53
2023-03-13T03:49:52.308Z,37.43
2023-03-13T03:52:20.127Z,43.50
2023-03-13T03:54:47.950Z,35.43
2023-03-13T03:57:15.807Z,39.50
2023-03-13T03:59:43.651Z,37.03
2023-03-13T04:02:11.598Z,38.10
2023-03-13T04:04:39.439Z,39.57
2023-03-13T04:07:08.631Z,47.07
2023-03-13T04:09:36.432Z,37.90
2023-03-13T04:12:04.508Z,37.43
2023-03-13T04:14:32.326Z,40.43
2023-03-13T04:17:00.204Z,38.47
2023-03-13T04:19:28.062Z,36.53
2023-03-13T04:21:55.872Z,36.17
2023-03-13T04:24:25.135Z,35.87
2023-03-13T04:26:52.950Z,41.97
2023-03-13T04:29:20.765Z,37.27
2023-03-13T04:31:48.605Z,39.33
2023-03-13T04:34:16.430Z,50.87
2023-03-13T04:36:44.230Z,36.27
2023-03-13T04:39:12.041Z,45.00
2023-03-13T04:41:41.213Z,37.50
2023-03-13T04:44:09.086Z,38.73
2023-03-13T04:46:37.114Z,37.63
2023-03-13T04:49:07.083Z,46.07
2023-03-13T04:51:36.270Z,36.67
2023-03-13T04:54:04.078Z,43.43
2023-03-13T04:56:42.656Z,36.80
2023-03-13T04:59:13.514Z,36.90
2023-03-13T05:01:42.108Z,38.07
2023-03-13T05:04:10.597Z,45.63
2023-03-13T05:06:38.557Z,42.53
2023-03-13T05:09:06.501Z,39.57
2023-03-13T05:11:35.063Z,37.67
2023-03-13T05:14:04.245Z,39.40
2023-03-13T05:16:33.428Z,36.97
2023-03-13T05:19:01.239Z,36.50
2023-03-13T05:21:29.081Z,40.73
2023-03-13T05:23:57.450Z,36.13
2023-03-13T05:26:25.325Z,42.40
2023-03-13T05:28:53.136Z,42.67
2023-03-13T05:31:21.110Z,46.33
2023-03-13T05:33:50.306Z,37.57
2023-03-13T05:36:18.153Z,39.13
2023-03-13T05:38:45.986Z,49.73
2023-03-13T05:41:13.822Z,37.93
2023-03-13T05:43:41.654Z,43.03
2023-03-13T05:46:09.617Z,48.33
2023-03-13T05:48:37.503Z,44.00
2023-03-13T05:51:07.016Z,40.03
2023-03-13T05:53:34.797Z,45.90
2023-03-13T05:56:02.627Z,39.90
2023-03-13T05:58:30.431Z,46.20
2023-03-13T06:00:58.271Z,39.30
2023-03-13T06:03:26.125Z,37.87
2023-03-13T06:05:59.082Z,36.67
2023-03-13T06:08:28.894Z,37.13
2023-03-13T06:10:59.737Z,42.93
2023-03-13T06:13:27.750Z,44.13
2023-03-13T06:15:56.255Z,36.33
2023-03-13T06:18:24.573Z,37.13
2023-03-13T06:20:57.906Z,42.30
2023-03-13T06:23:25.935Z,37.53
2023-03-13T06:25:55.598Z,39.00
2023-03-13T06:28:23.674Z,40.00
2023-03-13T06:30:51.508Z,39.73
2023-03-13T06:33:19.405Z,40.83
2023-03-13T06:35:56.132Z,38.63
2023-03-13T06:38:25.150Z,42.03
2023-03-13T06:40:53.282Z,44.70
2023-03-13T06:43:22.953Z,39.60
2023-03-13T06:45:50.944Z,41.50
2023-03-13T06:48:18.891Z,40.23
2023-03-13T06:50:47.143Z,39.93
2023-03-13T06:53:17.624Z,38.43
2023-03-13T06:55:46.262Z,39.17
2023-03-13T06:58:29.124Z,44.63
2023-03-13T07:01:00.239Z,40.13
2023-03-13T07:03:28.243Z,42.57
2023-03-13T07:06:00.274Z,41.57
2023-03-13T07:08:28.965Z,39.23
2023-03-13T07:11:02.135Z,43.40
2023-03-13T07:13:30.252Z,46.07
2023-03-13T07:16:01.026Z,40.00
2023-03-13T07:18:29.080Z,40.13
2023-03-13T07:20:59.129Z,42.67
2023-03-13T07:23:28.850Z,38.73
2023-03-13T07:25:57.692Z,40.60
2023-03-13T07:28:26.684Z,41.70
2023-03-13T07:30:54.617Z,47.23
2023-03-13T07:33:23.794Z,46.47
2023-03-13T07:35:52.774Z,39.77
2023-03-13T07:38:21.088Z,42.90
2023-03-13T07:40:50.455Z,41.08
2023-03-13T07:43:18.524Z,43.75
2023-03-13T07:45:57.350Z,42.43
2023-03-13T07:48:30.090Z,42.97
2023-03-13T07:50:58.053Z,41.07
2023-03-13T07:53:26.910Z,45.77
2023-03-13T07:55:59.549Z,42.97
2023-03-13T07:58:28.932Z,43.33
2023-03-13T08:00:56.789Z,45.20
2023-03-13T08:03:26.828Z,46.10
2023-03-13T08:06:01.873Z,45.80
2023-03-13T08:08:30.432Z,45.65
2023-03-13T08:11:02.262Z,47.50
2023-03-13T08:13:30.353Z,48.30
2023-03-13T08:16:09.069Z,48.00
2023-03-13T08:18:40.161Z,47.28
2023-03-13T08:21:10.057Z,47.35
2023-03-13T08:23:38.597Z,50.15
2023-03-13T08:26:08.396Z,47.20
2023-03-13T08:28:37.453Z,51.47
2023-03-13T08:31:10.009Z,48.85
2023-03-13T08:33:39.990Z,49.45
2023-03-13T08:36:13.453Z,45.00
2023-03-13T08:38:45.874Z,49.50
2023-03-13T08:41:21.099Z,48.53
2023-03-13T08:43:49.375Z,46.60
2023-03-13T08:46:19.279Z,46.70
2023-03-13T08:48:52.052Z,50.28
2023-03-13T08:51:21.489Z,47.40
2023-03-13T08:53:50.144Z,47.00
2023-03-13T08:56:19.656Z,48.90
2023-03-13T08:58:50.974Z,49.65
2023-03-13T09:01:19.001Z,48.40
2023-03-13T09:03:46.937Z,48.35
2023-03-13T09:06:16.552Z,46.25
2023-03-13T09:08:44.867Z,46.78
2023-03-13T09:11:14.651Z,47.63
2023-03-13T09:13:44.437Z,49.90
2023-03-13T09:16:14.066Z,49.15
2023-03-13T09:18:42.740Z,51.25
2023-03-13T09:21:13.162Z,48.60
2023-03-13T09:23:42.373Z,48.40
2023-03-13T09:26:11.559Z,47.97
2023-03-13T09:28:39.475Z,54.80
2023-03-13T09:31:08.625Z,48.90
2023-03-13T09:33:36.903Z,47.20
2023-03-13T09:36:05.362Z,47.10
2023-03-13T09:38:33.835Z,46.83
2023-03-13T09:41:20.859Z,47.70
2023-03-13T09:43:52.963Z,51.13
2023-03-13T09:46:26.195Z,48.30
2023-03-13T09:48:57.178Z,52.35
2023-03-13T09:51:29.293Z,48.33
2023-03-13T09:54:02.284Z,48.88
2023-03-13T09:56:38.009Z,49.35
2023-03-13T09:59:14.761Z,50.97
2023-03-13T10:01:45.002Z,48.60
2023-03-13T10:04:31.895Z,49.07
2023-03-13T10:06:59.746Z,48.80
2023-03-13T10:09:30.803Z,53.85
2023-03-13T10:12:08.758Z,47.40
2023-03-13T10:14:44.836Z,47.90
2023-03-13T10:17:21.175Z,50.90
2023-03-13T10:19:56.651Z,50.27
2023-03-13T10:22:27.145Z,49.67
2023-03-13T10:24:59.570Z,61.50
2023-03-13T10:27:28.778Z,49.90
2023-03-13T10:29:56.615Z,50.42
2023-03-13T10:32:24.491Z,49.00
2023-03-13T10:34:56.569Z,48.90
2023-03-13T10:37:27.859Z,51.03
2023-03-13T10:40:11.835Z,50.20
2023-03-13T10:42:45.149Z,49.38
2023-03-13T10:45:17.401Z,51.07
2023-03-13T10:47:45.573Z,50.92
2023-03-13T10:50:20.244Z,51.60
2023-03-13T10:52:49.854Z,49.92
2023-03-13T10:55:20.053Z,51.57
2023-03-13T10:57:59.451Z,50.47
2023-03-13T11:00:34.034Z,54.77
2023-03-13T11:06:04.688Z,52.13
2023-03-13T11:08:36.493Z,55.33
2023-03-13T11:11:05.810Z,51.13
2023-03-13T11:13:42.759Z,49.22
2023-03-13T11:16:20.869Z,48.70
2023-03-13T11:19:11.781Z,51.80
2023-03-13T11:21:48.975Z,49.25
2023-03-13T11:24:25.447Z,49.65
2023-03-13T11:27:05.388Z,49.53
2023-03-13T11:29:43.597Z,53.58
2023-03-13T11:32:20.974Z,49.60
2023-03-13T11:34:52.676Z,51.70
2023-03-13T11:37:23.460Z,50.95
2023-03-13T11:40:02.019Z,50.10
2023-03-13T11:43:00.145Z,49.97
2023-03-13T11:45:49.618Z,49.50
2023-03-13T11:48:31.531Z,55.17
2023-03-13T11:51:07.624Z,49.95
2023-03-13T11:53:52.643Z,49.00
2023-03-13T11:56:24.298Z,49.90
2023-03-13T11:59:22.445Z,56.90
2023-03-13T12:01:56.776Z,50.40
2023-03-13T12:04:28.760Z,49.50
2023-03-13T12:07:04.508Z,49.80
2023-03-13T12:09:38.045Z,59.50
2023-03-13T12:12:13.028Z,50.40
2023-03-13T12:14:44.437Z,53.92
2023-03-13T12:17:17.076Z,51.25
2023-03-13T12:19:52.061Z,52.35
2023-03-13T12:22:26.201Z,84.22
2023-03-13T12:25:01.370Z,51.20
2023-03-13T12:27:35.778Z,51.50
2023-03-13T12:30:08.437Z,51.28
2023-03-13T12:32:40.977Z,52.13
2023-03-13T12:35:19.126Z,51.28
2023-03-13T12:37:51.229Z,51.55
2023-03-13T12:40:25.615Z,51.90
2023-03-13T12:42:58.157Z,51.90
2023-03-13T12:45:29.219Z,56.67
2023-03-13T12:48:23.285Z,53.00
2023-03-13T12:51:15.973Z,51.42
2023-03-13T12:54:10.816Z,51.08
2023-03-13T12:56:49.414Z,52.30
2023-03-13T12:59:20.131Z,67.28
2023-03-13T13:01:51.162Z,54.95
2023-03-13T13:04:23.215Z,52.15
2023-03-13T13:06:59.258Z,52.00
2023-03-13T13:09:28.358Z,57.58
2023-03-13T13:11:58.080Z,49.40
2023-03-13T13:14:58.082Z,51.20
2023-03-13T13:18:07.686Z,50.90
2023-03-13T13:20:44.273Z,51.60
2023-03-13T13:23:34.093Z,51.03
2023-03-13T13:26:48.220Z,51.30
2023-03-13T13:29:58.584Z,51.05
2023-03-13T13:32:47.921Z,52.40
2023-03-13T13:35:41.131Z,52.60
2023-03-13T13:38:39.629Z,51.40
2023-03-13T13:41:40.113Z,52.20
2023-03-13T13:44:28.302Z,57.58
2023-03-13T13:46:59.337Z,51.47
2023-03-13T13:49:37.562Z,56.22
2023-03-13T13:52:40.436Z,50.60
2023-03-13T13:55:31.871Z,57.33
2023-03-13T13:58:05.300Z,50.80
2023-03-13T14:00:41.892Z,65.22
2023-03-13T14:03:28.131Z,51.20
2023-03-13T14:06:00.419Z,50.78
2023-03-13T14:08:32.322Z,52.00
2023-03-13T14:11:19.870Z,52.00
2023-03-13T14:14:11.612Z,54.03
2023-03-13T14:16:39.882Z,50.80
2023-03-13T14:19:25.291Z,52.60
2023-03-13T14:21:59.617Z,50.90
2023-03-13T14:24:28.873Z,51.58
2023-03-13T14:26:56.803Z,57.85
2023-03-13T14:29:26.793Z,52.80
2023-03-13T14:31:56.816Z,50.80
2023-03-13T14:34:25.821Z,52.60
2023-03-13T14:37:04.347Z,50.90
2023-03-13T14:39:46.012Z,52.03
2023-03-13T14:42:15.731Z,58.63
2023-03-13T14:44:46.719Z,52.38
2023-03-13T14:47:24.452Z,51.90
2023-03-13T14:49:58.679Z,51.67
2023-03-13T14:52:28.608Z,52.70
2023-03-13T14:55:02.078Z,51.00
2023-03-13T14:57:30.862Z,50.78
2023-03-13T15:00:29.425Z,51.30
2023-03-13T15:03:25.711Z,51.65
2023-03-13T15:06:08.681Z,52.10
2023-03-13T15:08:37.915Z,54.72
2023-03-13T15:11:20.887Z,51.90
2023-03-13T15:13:48.901Z,51.97
2023-03-13T15:16:20.066Z,50.63
2023-03-13T15:18:48.598Z,52.40
2023-03-13T15:21:26.449Z,53.95
2023-03-13T15:23:57.028Z,55.30
2023-03-13T15:26:27.134Z,51.22
2023-03-13T15:28:55.586Z,61.95
2023-03-13T15:31:27.579Z,52.70
2023-03-13T15:33:58.912Z,58.65
2023-03-13T15:36:27.934Z,59.53
2023-03-13T15:38:56.203Z,81.60
2023-03-13T15:41:25.825Z,52.00
2023-03-13T15:43:55.320Z,52.63
2023-03-13T15:46:24.773Z,51.45
2023-03-13T15:48:53.901Z,67.15
2023-03-13T15:51:21.828Z,58.17
2023-03-13T15:53:49.659Z,52.53
2023-03-13T15:56:18.888Z,51.30
2023-03-13T15:58:49.075Z,59.75
2023-03-13T16:01:18.719Z,51.70
2023-03-13T16:03:46.716Z,57.88
2023-03-13T16:06:17.529Z,51.30
2023-03-13T16:08:45.949Z,57.00
2023-03-13T16:11:15.676Z,51.60
2023-03-13T16:13:43.755Z,51.97
2023-03-13T16:16:21.949Z,61.67
2023-03-13T16:18:50.774Z,52.20
2023-03-13T16:21:22.051Z,50.78
2023-03-13T16:23:50.056Z,51.20
2023-03-13T16:26:19.794Z,50.73
2023-03-13T16:28:48.232Z,54.67
2023-03-13T16:31:22.511Z,52.30
2023-03-13T16:33:53.693Z,50.90
2023-03-13T16:36:24.005Z,51.17
2023-03-13T16:38:52.772Z,51.97
2023-03-13T16:41:23.059Z,50.80
2023-03-13T16:43:51.148Z,50.80
2023-03-13T16:46:22.140Z,50.83
2023-03-13T16:48:51.129Z,52.30
2023-03-13T16:51:21.194Z,51.70
2023-03-13T16:53:50.797Z,51.80
2023-03-13T16:56:26.831Z,51.30
2023-03-13T16:58:55.361Z,60.92
2023-03-13T17:01:25.938Z,56.63
2023-03-13T17:03:54.536Z,91.82
2023-03-13T17:06:24.340Z,51.75
2023-03-13T17:08:52.549Z,58.40
2023-03-13T17:11:21.848Z,51.72
2023-03-13T17:13:51.396Z,52.70
2023-03-13T17:16:21.002Z,51.30
2023-03-13T17:18:52.484Z,65.30
2023-03-13T17:21:22.386Z,56.38
2023-03-13T17:23:50.287Z,62.28
2023-03-13T17:26:21.471Z,59.05
2023-03-13T17:28:51.708Z,54.72
2023-03-13T17:31:21.390Z,52.20
2023-03-13T17:33:50.766Z,56.55
2023-03-13T17:36:21.900Z,51.95
2023-03-13T17:38:51.739Z,61.00
2023-03-13T17:41:21.906Z,71.47
2023-03-13T17:43:49.990Z,62.40
2023-03-13T17:46:20.715Z,65.85
2023-03-13T17:48:52.455Z,63.03
2023-03-13T17:51:22.850Z,49.70
2023-03-13T17:53:51.668Z,50.35
2023-03-13T17:56:21.989Z,60.67
2023-03-13T17:58:51.423Z,56.08
2023-03-13T18:01:21.377Z,49.50
2023-03-13T18:03:51.325Z,51.30
2023-03-13T18:06:22.435Z,75.93
2023-03-13T18:08:52.233Z,62.00
2023-03-13T18:11:21.218Z,55.97
2023-03-13T18:13:49.720Z,56.53
2023-03-13T18:16:26.770Z,49.60
2023-03-13T18:18:56.072Z,49.70
2023-03-13T18:21:24.716Z,49.80
2023-03-13T18:23:53.401Z,50.40
2023-03-13T18:26:27.056Z,51.43
2023-03-13T18:28:59.866Z,57.33
2023-03-13T18:31:29.636Z,56.35
2023-03-13T18:34:00.588Z,53.20
2023-03-13T18:36:29.170Z,63.85
2023-03-13T18:38:58.097Z,54.38
2023-03-13T18:41:26.797Z,50.60
2023-03-13T18:43:54.637Z,49.30
2023-03-13T18:46:24.373Z,51.83
2023-03-13T18:48:52.246Z,82.38
2023-03-13T18:51:24.129Z,49.90
2023-03-13T18:53:52.666Z,49.58
2023-03-13T18:56:23.484Z,48.60
2023-03-13T18:58:53.094Z,51.25
2023-03-13T19:01:23.669Z,48.97
2023-03-13T19:03:51.607Z,53.45
2023-03-13T19:06:24.388Z,48.90
2023-03-13T19:08:54.362Z,66.90
2023-03-13T19:11:24.588Z,62.85
2023-03-13T19:13:52.512Z,50.47
2023-03-13T19:16:23.064Z,48.40
2023-03-13T19:18:52.575Z,50.60
2023-03-13T19:21:24.276Z,49.80
2023-03-13T19:23:53.108Z,48.83
2023-03-13T19:26:28.285Z,48.90
2023-03-13T19:28:56.093Z,66.50
2023-03-13T19:31:24.603Z,49.40
2023-03-13T19:33:53.374Z,50.00
2023-03-13T19:36:24.001Z,50.57
2023-03-13T19:38:52.433Z,65.90
2023-03-13T19:41:20.216Z,50.10
2023-03-13T19:43:48.147Z,48.97
2023-03-13T19:46:27.342Z,49.60
2023-03-13T19:48:55.620Z,52.15
2023-03-13T19:51:26.868Z,49.72
2023-03-13T19:53:55.349Z,48.30
2023-03-13T19:56:25.119Z,48.67
2023-03-13T19:58:57.370Z,50.15
2023-03-13T20:01:25.493Z,64.82
2023-03-13T20:03:53.485Z,58.50
2023-03-13T20:06:23.424Z,49.50
2023-03-13T20:08:55.302Z,58.95
2023-03-13T20:11:23.326Z,48.00
2023-03-13T20:13:51.239Z,49.88
2023-03-13T20:16:19.751Z,54.92
2023-03-13T20:18:50.270Z,50.08
2023-03-13T20:21:18.985Z,57.13
2023-03-13T20:23:48.473Z,49.37
2023-03-13T20:26:19.712Z,49.25
2023-03-13T20:28:49.071Z,61.65
2023-03-13T20:31:18.930Z,51.72
2023-03-13T20:33:46.906Z,52.70
2023-03-13T20:36:16.433Z,49.63
2023-03-13T20:38:44.735Z,51.80
2023-03-13T20:41:12.691Z,52.22
2023-03-13T20:43:42.149Z,55.03
2023-03-13T20:46:10.186Z,50.30
2023-03-13T20:48:39.820Z,49.30
2023-03-13T20:51:09.100Z,50.60
2023-03-13T20:53:37.426Z,50.50
2023-03-13T20:56:07.029Z,53.75
2023-03-13T20:58:35.205Z,49.38
2023-03-13T21:01:06.448Z,55.20
2023-03-13T21:03:35.750Z,50.03
2023-03-13T21:06:10.577Z,49.50
2023-03-13T21:08:39.015Z,52.08
2023-03-13T21:11:13.446Z,49.20
2023-03-13T21:13:41.373Z,49.45
2023-03-13T21:16:11.219Z,49.42
2023-03-13T21:18:39.413Z,51.08
2023-03-13T21:21:09.273Z,48.97
2023-03-13T21:23:38.464Z,50.45
2023-03-13T21:26:06.609Z,50.38
2023-03-13T21:28:34.578Z,60.03
2023-03-13T21:31:12.459Z,50.43
2023-03-13T21:33:41.372Z,49.15
2023-03-13T21:36:10.397Z,47.92
2023-03-13T21:38:38.271Z,55.53
2023-03-13T21:41:09.279Z,51.73
2023-03-13T21:43:37.403Z,50.30
2023-03-13T21:46:05.610Z,50.00
2023-03-13T21:48:34.870Z,55.60
2023-03-13T21:51:02.662Z,48.80
2023-03-13T21:53:30.445Z,49.47
2023-03-13T21:55:58.261Z,49.47
2023-03-13T21:58:26.175Z,59.63
2023-03-13T22:00:54.996Z,53.13
2023-03-13T22:03:23.401Z,53.13
2023-03-13T22:05:52.725Z,51.08
2023-03-13T22:08:20.613Z,58.50
2023-03-13T22:10:49.912Z,62.33
2023-03-13T22:13:17.935Z,50.20
2023-03-13T22:15:46.481Z,50.50
2023-03-13T22:18:14.524Z,50.30
2023-03-13T22:20:42.841Z,50.03
2023-03-13T22:23:12.202Z,49.15
2023-03-13T22:25:40.283Z,48.40
2023-03-13T22:28:08.106Z,51.10
2023-03-13T22:30:36.110Z,50.97
2023-03-13T22:33:06.626Z,50.10
2023-03-13T22:35:34.504Z,49.15
2023-03-13T22:38:02.375Z,49.75
2023-03-13T22:40:31.630Z,48.22
2023-03-13T22:42:59.599Z,49.67
2023-03-13T22:45:27.540Z,48.17
2023-03-13T22:47:55.424Z,50.15
2023-03-13T22:50:25.563Z,51.22
2023-03-13T22:52:53.570Z,48.17
2023-03-13T22:55:21.348Z,49.72
2023-03-13T22:57:50.498Z,47.58
2023-03-13T23:00:19.085Z,48.33
2023-03-13T23:02:47.484Z,49.30
2023-03-13T23:05:15.292Z,49.80
2023-03-13T23:07:44.428Z,47.80
2023-03-13T23:10:13.293Z,47.10
2023-03-13T23:12:41.222Z,47.40
2023-03-13T23:15:12.404Z,48.00
2023-03-13T23:17:40.349Z,47.97
2023-03-13T23:20:13.539Z,49.25
2023-03-13T23:22:42.433Z,48.65
2023-03-13T23:25:11.456Z,48.15
2023-03-13T23:27:39.261Z,48.25
2023-03-13T23:30:12.015Z,47.93
2023-03-13T23:32:41.788Z,49.88
2023-03-13T23:35:10.811Z,49.80
2023-03-13T23:37:38.710Z,48.63
2023-03-13T23:40:09.741Z,48.90
2023-03-13T23:42:37.828Z,49.72
2023-03-13T23:45:06.653Z,48.70
2023-03-13T23:47:35.868Z,48.50
2023-03-13T23:50:05.196Z,49.70
2023-03-13T23:52:34.961Z,48.88
2023-03-13T23:55:04.263Z,49.20
2023-03-13T23:57:32.492Z,48.77
